createdAt,value
2016-12-03T00:00:05.227Z,-1.02
2016-12-03T00:01:00.275Z,-1.05
2016-12-03T00:01:48.386Z,-1.05
2016-12-03T00:02:39.212Z,-1.02
2016-12-03T00:03:29.220Z,-1.08
2016-12-03T00:04:14.420Z,-1.15
2016-12-03T00:04:55.967Z,-1.07
2016-12-03T00:05:45.741Z,-1.14
2016-12-03T00:06:35.834Z,-1.19
2016-12-03T00:07:24.705Z,-1.11
2016-12-03T00:08:13.712Z,-1.15
2016-12-03T00:09:01.903Z,-1.14
2016-12-03T00:09:50.351Z,-1.15
2016-12-03T00:10:36.204Z,-1.12
2016-12-03T00:11:25.207Z,-1.15
2016-12-03T00:12:09.479Z,-1.15
2016-12-03T00:12:53.351Z,-1.19
2016-12-03T00:13:38.413Z,-1.14
2016-12-03T00:14:20.785Z,-1.17
2016-12-03T00:15:03.875Z,-1.14
2016-12-03T00:15:53.715Z,-1.19
2016-12-03T00:16:36.224Z,-1.15
2016-12-03T00:17:24.401Z,-1.19
2016-12-03T00:18:10.334Z,-1.12
2016-12-03T00:18:53.399Z,-1.2
2016-12-03T00:19:45.193Z,-1.14
2016-12-03T00:20:30.312Z,-1.17
2016-12-03T00:21:14.358Z,-1.22
2016-12-03T00:22:06.193Z,-1.15
2016-12-03T00:22:53.175Z,-1.19
2016-12-03T00:23:39.337Z,-1.22
2016-12-03T00:24:38.252Z,-1.29
2016-12-03T00:25:26.198Z,-1.22
2016-12-03T00:26:08.469Z,-1.3
2016-12-03T00:26:54.291Z,-1.29
2016-12-03T00:27:44.270Z,-1.17
2016-12-03T00:28:30.190Z,-1.23
2016-12-03T00:29:14.203Z,-1.23
2016-12-03T00:29:56.419Z,-1.23
2016-12-03T00:30:41.392Z,-1.25
2016-12-03T00:31:21.884Z,-1.29
2016-12-03T00:32:08.923Z,-1.25
2016-12-03T00:32:52.987Z,-1.17
2016-12-03T00:33:36.785Z,-1.25
2016-12-03T00:34:23.382Z,-1.29
2016-12-03T00:35:10.231Z,-1.23
2016-12-03T00:35:58.306Z,-1.22
2016-12-03T00:36:41.566Z,-1.37
2016-12-03T00:37:22.498Z,-1.25
2016-12-03T00:38:10.205Z,-1.26
2016-12-03T00:38:54.688Z,-1.3
2016-12-03T00:39:46.811Z,-1.37
2016-12-03T00:40:35.728Z,-1.41
2016-12-03T00:41:26.839Z,-1.41
2016-12-03T00:42:16.833Z,-1.3
2016-12-03T00:43:02.901Z,-1.41
2016-12-03T00:43:48.222Z,-1.37
2016-12-03T00:44:35.335Z,-1.35
2016-12-03T00:45:22.503Z,-1.41
2016-12-03T00:46:13.354Z,-1.33
2016-12-03T00:46:59.382Z,-1.35
2016-12-03T00:47:49.263Z,-1.35
2016-12-03T00:48:37.300Z,-1.4
2016-12-03T00:49:26.297Z,-1.35
2016-12-03T00:50:20.208Z,-1.37
2016-12-03T00:51:10.244Z,-1.37
2016-12-03T00:51:58.300Z,-1.29
2016-12-03T00:52:41.491Z,-1.38
2016-12-03T00:53:25.651Z,-1.4
2016-12-03T00:54:20.695Z,-1.37
2016-12-03T00:55:11.705Z,-1.38
2016-12-03T00:55:57.825Z,-1.4
2016-12-03T00:56:47.775Z,-1.41
2016-12-03T00:57:36.782Z,-1.44
2016-12-03T00:58:24.319Z,-1.38
2016-12-03T00:59:09.187Z,-1.4
2016-12-03T01:00:01.433Z,-1.4
2016-12-03T01:00:57.305Z,-1.41
2016-12-03T01:01:42.689Z,-1.35
2016-12-03T01:02:34.292Z,-1.33
2016-12-03T01:03:19.402Z,-1.35
2016-12-03T01:04:11.409Z,-1.35
2016-12-03T01:04:59.315Z,-1.37
2016-12-03T01:05:45.222Z,-1.48
2016-12-03T01:06:32.219Z,-1.38
2016-12-03T01:07:27.214Z,-1.41
2016-12-03T01:08:16.214Z,-1.4
2016-12-03T01:09:06.258Z,-1.4
2016-12-03T01:09:51.185Z,-1.53
2016-12-03T01:10:37.501Z,-1.46
2016-12-03T01:11:26.955Z,-1.44
2016-12-03T01:13:47.312Z,-1.44
2016-12-03T01:14:42.521Z,-1.43
2016-12-03T01:15:36.782Z,-1.46
2016-12-03T01:16:27.743Z,-1.38
2016-12-03T01:17:19.857Z,-1.51
2016-12-03T01:18:10.558Z,-1.44
2016-12-03T01:19:05.559Z,-1.47
2016-12-03T01:20:40.849Z,-1.37
2016-12-03T01:21:32.559Z,-1.48
2016-12-03T01:22:24.234Z,-1.4
2016-12-03T01:23:18.034Z,-1.5
2016-12-03T01:24:10.165Z,-1.38
2016-12-03T01:25:00.374Z,-1.4
2016-12-03T01:25:58.628Z,-1.37
2016-12-03T01:29:34.911Z,-1.37
2016-12-03T01:30:24.807Z,-1.4
2016-12-03T01:31:16.777Z,-1.33
2016-12-03T01:32:10.852Z,-1.4
2016-12-03T01:34:14.779Z,-1.35
2016-12-03T01:35:59.327Z,-1.38
2016-12-03T01:37:48.087Z,-1.35
2016-12-03T01:41:22.633Z,-1.37
2016-12-03T01:43:25.701Z,-1.41
2016-12-03T01:44:25.222Z,-1.32
2016-12-03T01:46:35.910Z,-1.37
2016-12-03T01:48:39.986Z,-1.37
2016-12-03T01:49:40.291Z,-1.4
2016-12-03T01:50:44.363Z,-1.4
2016-12-03T01:52:53.250Z,-1.53
2016-12-03T01:53:48.750Z,-1.44
2016-12-03T01:54:40.317Z,-1.48
2016-12-03T01:55:35.317Z,-1.44
2016-12-03T01:56:26.420Z,-1.48
2016-12-03T01:57:17.772Z,-1.47
2016-12-03T01:58:14.450Z,-1.47
2016-12-03T01:59:08.358Z,-1.47
2016-12-03T02:00:05.786Z,-1.43
2016-12-03T02:01:00.125Z,-1.5
2016-12-03T02:01:55.036Z,-1.5
2016-12-03T02:02:47.863Z,-1.37
2016-12-03T02:03:44.660Z,-1.4
2016-12-03T02:04:42.762Z,-1.4
2016-12-03T02:05:32.950Z,-1.32
2016-12-03T02:06:26.739Z,-1.4
2016-12-03T02:08:35.278Z,-1.38
2016-12-03T02:09:34.287Z,-1.29
2016-12-03T02:10:23.457Z,-1.29
2016-12-03T02:11:16.659Z,-1.27
2016-12-03T02:13:20.724Z,-1.33
2016-12-03T02:14:11.483Z,-1.32
2016-12-03T02:16:21.453Z,-1.37
2016-12-03T02:17:18.154Z,-1.35
2016-12-03T02:18:14.569Z,-1.38
2016-12-03T02:19:10.290Z,-1.38
2016-12-03T02:20:04.333Z,-1.32
2016-12-03T02:20:55.651Z,-1.32
2016-12-03T02:21:47.336Z,-1.4
2016-12-03T02:22:43.042Z,-1.4
2016-12-03T02:23:37.624Z,-1.5
2016-12-03T02:24:34.010Z,-1.48
2016-12-03T02:26:56.070Z,-1.47
2016-12-03T02:27:46.542Z,-1.4
2016-12-03T02:28:39.643Z,-1.53
2016-12-03T02:29:34.582Z,-1.56
2016-12-03T02:30:27.294Z,-1.54
2016-12-03T02:31:22.795Z,-1.48
2016-12-03T02:32:12.932Z,-1.64
2016-12-03T02:33:07.208Z,-1.66
2016-12-03T02:33:58.475Z,-1.64
2016-12-03T02:34:48.392Z,-1.59
2016-12-03T02:35:38.066Z,-1.59
2016-12-03T02:36:26.768Z,-1.71
2016-12-03T02:37:19.824Z,-1.71
2016-12-03T02:38:14.544Z,-1.68
2016-12-03T02:39:04.107Z,-1.69
2016-12-03T02:39:57.259Z,-1.69
2016-12-03T02:40:51.077Z,-1.69
2016-12-03T02:41:46.292Z,-1.68
2016-12-03T02:43:37.897Z,-1.72
2016-12-03T02:44:24.503Z,-1.77
2016-12-03T02:45:17.821Z,-1.84
2016-12-03T02:46:09.463Z,-1.77
2016-12-03T02:47:01.479Z,-1.76
2016-12-03T02:47:55.430Z,-1.76
2016-12-03T02:48:50.417Z,-1.9
2016-12-03T02:49:44.522Z,-1.95
2016-12-03T02:50:35.064Z,-1.94
2016-12-03T02:51:25.988Z,-1.95
2016-12-03T02:52:16.236Z,-1.95
2016-12-03T02:53:00.226Z,-1.87
2016-12-03T02:53:41.403Z,-1.98
2016-12-03T02:54:24.373Z,-2.01
2016-12-03T02:55:06.421Z,-2.05
2016-12-03T02:55:54.185Z,-1.95
2016-12-03T02:56:36.365Z,-1.95
2016-12-03T02:57:21.811Z,-2.04
2016-12-03T02:58:07.765Z,-2.05
2016-12-03T02:58:57.687Z,-2.01
2016-12-03T02:59:40.862Z,-2.07
2016-12-03T03:00:23.831Z,-1.98
2016-12-03T03:01:04.315Z,-2.07
2016-12-03T03:01:45.697Z,-2.01
2016-12-03T03:02:48.715Z,-2.04
2016-12-03T03:03:29.778Z,-2.04
2016-12-03T03:04:12.794Z,-2.08
2016-12-03T03:04:56.947Z,-2.04
2016-12-03T03:05:42.274Z,-2.07
2016-12-03T03:06:24.214Z,-2.04
2016-12-03T03:07:09.196Z,-2.04
2016-12-03T03:07:49.713Z,-2.04
2016-12-03T03:08:43.784Z,-2.05
2016-12-03T03:09:30.877Z,-1.98
2016-12-03T03:10:12.340Z,-2.02
2016-12-03T03:10:54.671Z,-1.97
2016-12-03T03:11:36.692Z,-1.98
2016-12-03T03:12:18.122Z,-1.97
2016-12-03T03:13:03.258Z,-1.94
2016-12-03T03:13:46.448Z,-1.98
2016-12-03T03:14:33.746Z,-1.9
2016-12-03T03:15:15.688Z,-1.97
2016-12-03T03:16:01.711Z,-1.95
2016-12-03T03:16:46.697Z,-1.92
2016-12-03T03:17:34.804Z,-1.95
2016-12-03T03:18:20.812Z,-2.02
2016-12-03T03:19:02.049Z,-1.9
2016-12-03T03:19:47.339Z,-1.9
2016-12-03T03:20:29.389Z,-1.98
2016-12-03T03:21:16.205Z,-1.94
2016-12-03T03:22:18.216Z,-1.97
2016-12-03T03:22:58.708Z,-2.05
2016-12-03T03:23:43.806Z,-2.07
2016-12-03T03:24:30.809Z,-2.1
2016-12-03T03:25:12.863Z,-2.07
2016-12-03T03:25:58.310Z,-1.98
2016-12-03T03:26:39.806Z,-1.98
2016-12-03T03:27:22.751Z,-2.04
2016-12-03T03:28:06.668Z,-2.04
2016-12-03T03:28:52.712Z,-2.05
2016-12-03T03:29:42.857Z,-2.01
2016-12-03T03:30:37.770Z,-2.01
2016-12-03T03:31:24.749Z,-2.02
2016-12-03T03:32:08.724Z,-2
2016-12-03T03:32:50.714Z,-1.98
2016-12-03T03:33:37.712Z,-2.07
2016-12-03T03:34:20.782Z,-1.98
2016-12-03T03:35:06.708Z,-2.04
2016-12-03T03:35:48.873Z,-2.04
2016-12-03T03:36:31.090Z,-2.05
2016-12-03T03:37:12.691Z,-2.07
2016-12-03T03:37:54.840Z,-2.08
2016-12-03T03:38:39.673Z,-2.1
2016-12-03T03:39:23.960Z,-2.1
2016-12-03T03:40:05.282Z,-2.08
2016-12-03T03:40:51.186Z,-2.1
2016-12-03T03:41:34.185Z,-2.12
2016-12-03T03:42:15.503Z,-2.12
2016-12-03T03:43:06.387Z,-2.15
2016-12-03T03:43:51.203Z,-2.12
2016-12-03T03:44:36.180Z,-2.16
2016-12-03T03:45:24.238Z,-2.15
2016-12-03T03:46:16.201Z,-2.21
2016-12-03T03:46:56.697Z,-2.18
2016-12-03T03:47:41.945Z,-2.13
2016-12-03T03:48:27.290Z,-2.21
2016-12-03T03:49:13.380Z,-2.19
2016-12-03T03:49:55.658Z,-2.21
2016-12-03T03:50:38.702Z,-2.19
2016-12-03T03:51:22.699Z,-2.16
2016-12-03T03:52:03.867Z,-2.16
2016-12-03T03:52:49.991Z,-2.21
2016-12-03T03:53:35.215Z,-2.18
2016-12-03T03:54:23.192Z,-2.15
2016-12-03T03:55:11.319Z,-2.22
2016-12-03T03:55:57.203Z,-2.16
2016-12-03T03:56:48.231Z,-2.08
2016-12-03T03:57:36.252Z,-2.08
2016-12-03T03:58:20.180Z,-1.98
2016-12-03T04:03:17.887Z,-2.04
2016-12-03T04:04:20.776Z,-2.12
2016-12-03T04:05:55.134Z,-2.08
2016-12-03T04:06:43.933Z,-2.15
2016-12-03T04:07:38.092Z,-2.12
2016-12-03T04:08:27.820Z,-2.22
2016-12-03T04:09:19.753Z,-2.18
2016-12-03T04:10:11.554Z,-2.15
2016-12-03T04:11:02.714Z,-2.16
2016-12-03T04:11:51.841Z,-2.21
2016-12-03T04:12:42.579Z,-2.21
2016-12-03T04:13:33.726Z,-2.19
2016-12-03T04:14:22.744Z,-2.15
2016-12-03T04:15:17.496Z,-2.16
2016-12-03T04:16:09.305Z,-2.16
2016-12-03T04:16:59.054Z,-2.18
2016-12-03T04:17:51.289Z,-2.12
2016-12-03T04:18:43.951Z,-2.1
2016-12-03T04:19:32.777Z,-2.15
2016-12-03T04:20:26.896Z,-2.1
2016-12-03T04:21:14.669Z,-2.08
2016-12-03T04:22:06.438Z,-2.12
2016-12-03T04:22:56.440Z,-2.1
2016-12-03T04:25:22.282Z,-2.08
2016-12-03T04:26:13.551Z,-2.02
2016-12-03T04:27:06.595Z,-2.08
2016-12-03T04:27:55.852Z,-2.04
2016-12-03T04:28:53.762Z,-2.07
2016-12-03T04:29:43.727Z,-2.08
2016-12-03T04:30:36.938Z,-2.07
2016-12-03T04:31:26.339Z,-2.04
2016-12-03T04:32:16.392Z,-2.1
2016-12-03T04:33:06.459Z,-2.07
2016-12-03T04:34:04.906Z,-2.01
2016-12-03T04:34:57.784Z,-2.04
2016-12-03T04:35:50.650Z,-2.01
2016-12-03T04:38:00.760Z,-2.04
2016-12-03T04:38:54.781Z,-2.02
2016-12-03T04:41:02.121Z,-2.04
2016-12-03T04:41:54.614Z,-2.02
2016-12-03T04:43:50.415Z,-1.98
2016-12-03T04:44:46.682Z,-1.95
2016-12-03T04:45:36.573Z,-1.94
2016-12-03T04:46:25.454Z,-2.02
2016-12-03T04:47:15.145Z,-1.9
2016-12-03T04:48:09.619Z,-1.98
2016-12-03T04:49:03.286Z,-1.95
2016-12-03T04:49:56.936Z,-1.92
2016-12-03T04:50:51.906Z,-2.01
